Airfield :
LOGIN :

Register | Disclaimer

   EN    FR    IT 

 










Legend :    VFR   Marginal VFR   IFR   Intensive IFR   Very Intensive IFR
Visi :
Ceiling :
>= 8 km
>= 3000ft
5 to 8 km
1000 to 3000 ft
1500m to 5 km
500 to 1000 ft
800 to 1500m
200 to 500 ft
< 800m
< 200 ft
Symbols :   Thunderstorms  Fog  Heavy snow  Heavy precipitations  Wind > 20 kt
SIGMETs :     Misc.  Thunderstorms  Icing  Turbulence  Mountain Waves  Volcanic Ashes







- Airport Elevation : 538 ft
- IATA code : TNF
- Download approach charts


LFPN - Toussus Le Noble

CURRENT METAR :
  • 280630Z AUTO 25009KT 9999 SCT010 SCT015 BKN100 17/14 Q1000 TEMPO SHRA BKN022TCU

EXPIRED METARs :
  • 280600Z AUTO 24006KT 9999 FEW008 SCT024 BKN094 17/15 Q1000 TEMPO SHRA BKN022TCU
  • 280530Z AUTO 24004KT 9999 SCT007 BKN013 OVC021 16/15 Q1000 TEMPO SHRA BKN022TCU
  • 280500Z AUTO 24004KT 9999 FEW006 SCT010 BKN014 16/15 Q1000
  • 280430Z AUTO 24004KT 9999 SCT011 OVC019 16/15 Q1000
  • 280400Z AUTO 25004KT 230V290 9999 BKN007 OVC019 16/15 Q1000

TAF TAF LFPN
Valid from the 28 at 06:00 until the 28 at 15:00 UTC


280500Z 2806/2815 23005KT 9999 SCT006 BKN012
BECMG 2806/2808 SCT012 BKN020
TEMPO 2807/2815 SHRA BKN022TCU
PROB30
TEMPO 2812/2815 23015G30KT 4000 -TSRA BKN030CB
ATIS : +33 1 39 56 54 70
No reported NOTAMs for that airfield.



MET'MAP, your aeronautical weather chart ! - Copyright ORBIFLY December 2007 - Disclaimer

ORBIFLY MET'MAP TEAM :

Programming & Development : Alexandra Zaïnal
Concept & Development : Baudouin d'Aumeries
Co-Development & Prog : Marc-Olivier Méhu
Technical & hardware support : Manuel Goepfert

Contact : metmap@orbifly.com




SOURCES & CREDITS :

   NOAA